aviador You're here:

EPWA Decoded Metar

WARSAW in POLAND
Report Time2018-01-16 21:00:00
UTC Time2018-01-16 21:16:15
Flight Rules ifr IFR
Wind140° at 11 kt
W.Decomp.*RWY 15: 10.6 kt HW 2.8 kt LCW
RWY 11: 10.0 kt HW 4.6 kt RCW
W.Rank140° ranks 8
Current wind is above 140° avg. (6.3)
Visibility9999 m
Phenomena:Light Snow
Clouds:Broken 009 Hf
Expected CloudBase > 800 ft AGL from Temp-Dew spread
Ceiling900 ft
Temp-3°C (ISA -17)
Dew Point-5°C (86% RH)
AAT-9.6°C
QNH0992 hPa
Density Alt-991 ft
Elevation351 ft
Report Wrong Elevation
Raw Report
EPWA 162100Z 14011KT 9999 -SN BKN009 M03/M05 Q0992 R11/55//94
NOSIG=

Extra information for EPWA:More info

Metar Taf Metar & Taf Last 4 Metars F.Rules Stats Wind Profile Meteogram Temp Stats Airport Information Weather charts Add Link Nearby VenuesMetar ALERT Operation Metar Decoded Social comments